createdAt,value
2023-02-16T00:00:27.903Z,95092.00
2023-02-16T00:02:55.123Z,95094.00
2023-02-16T00:05:27.060Z,95092.00
2023-02-16T00:07:56.393Z,95091.00
2023-02-16T00:10:25.782Z,95106.00
2023-02-16T00:13:13.829Z,95104.00
2023-02-16T00:15:41.114Z,95115.00
2023-02-16T00:18:18.433Z,95119.00
2023-02-16T00:20:49.132Z,95117.00
2023-02-16T00:23:17.443Z,95114.00
2023-02-16T00:25:44.350Z,95123.00
2023-02-16T00:28:22.112Z,95123.00
2023-02-16T00:30:51.848Z,95129.00
2023-02-16T00:33:21.414Z,95121.00
2023-02-16T00:35:49.160Z,95115.00
2023-02-16T00:38:16.275Z,95115.00
2023-02-16T00:40:46.354Z,95119.00
2023-02-16T00:43:28.101Z,95118.00
2023-02-16T00:45:55.777Z,95116.00
2023-02-16T00:48:24.180Z,95114.00
2023-02-16T00:50:51.071Z,95107.00
2023-02-16T00:53:17.997Z,95108.00
2023-02-16T00:55:47.826Z,95107.00
2023-02-16T00:58:27.194Z,95104.00
2023-02-16T01:00:59.756Z,95105.00
2023-02-16T01:03:30.023Z,95109.00
2023-02-16T01:06:17.817Z,95116.00
2023-02-16T01:09:05.693Z,95115.00
2023-02-16T01:11:37.408Z,95104.00
2023-02-16T01:14:08.273Z,95111.00
2023-02-16T01:16:42.756Z,95110.00
2023-02-16T01:19:14.137Z,95107.00
2023-02-16T01:21:41.110Z,95103.00
2023-02-16T01:24:08.456Z,95102.00
2023-02-16T01:26:47.418Z,95108.00
2023-02-16T01:29:20.622Z,95109.00
2023-02-16T01:31:50.269Z,95100.00
2023-02-16T01:34:19.486Z,95104.00
2023-02-16T01:36:48.944Z,95101.00
2023-02-16T01:39:21.842Z,95101.00
2023-02-16T01:42:18.512Z,95095.00
2023-02-16T01:45:03.817Z,95104.00
2023-02-16T01:47:59.343Z,95102.00
2023-02-16T01:50:39.878Z,95102.00
2023-02-16T01:53:20.618Z,95101.00
2023-02-16T01:55:57.463Z,95098.00
2023-02-16T01:58:46.878Z,95094.00
2023-02-16T02:01:42.114Z,95099.00
2023-02-16T02:04:46.375Z,95092.00
2023-02-16T02:07:29.901Z,95089.00
2023-02-16T02:10:19.598Z,95088.00
2023-02-16T02:13:02.810Z,95094.00
2023-02-16T02:15:36.673Z,95094.00
2023-02-16T02:18:13.051Z,95079.00
2023-02-16T02:22:00.473Z,95085.00
2023-02-16T02:24:55.029Z,95084.00
2023-02-16T02:28:14.046Z,95070.00
2023-02-16T02:31:07.899Z,95072.00
2023-02-16T02:34:23.063Z,95071.00
2023-02-16T02:37:18.430Z,95072.00
2023-02-16T02:40:50.703Z,95067.00
2023-02-16T02:43:39.884Z,95067.00
2023-02-16T02:46:18.087Z,95067.00
2023-02-16T02:48:47.064Z,95057.00
2023-02-16T02:51:30.852Z,95066.00
2023-02-16T02:54:44.052Z,95073.00
2023-02-16T02:57:45.221Z,95063.00
2023-02-16T03:00:40.373Z,95073.00
2023-02-16T03:03:30.344Z,95059.00
2023-02-16T03:06:11.135Z,95075.00
2023-02-16T03:08:41.464Z,95071.00
2023-02-16T03:11:41.113Z,95058.00
2023-02-16T03:14:31.158Z,95063.00
2023-02-16T03:17:21.972Z,95067.00
2023-02-16T03:20:11.311Z,95065.00
2023-02-16T03:22:59.099Z,95065.00
2023-02-16T03:25:51.429Z,95063.00
2023-02-16T03:28:46.386Z,95059.00
2023-02-16T03:31:22.165Z,95066.00
2023-02-16T03:33:55.144Z,95058.00
2023-02-16T03:36:30.054Z,95060.00
2023-02-16T03:38:58.677Z,95064.00
2023-02-16T03:41:27.103Z,95063.00
2023-02-16T03:43:58.559Z,95061.00
2023-02-16T03:46:25.516Z,95072.00
2023-02-16T03:48:54.633Z,95071.00
2023-02-16T03:51:21.546Z,95057.00
2023-02-16T03:53:48.399Z,95072.00
2023-02-16T03:56:15.260Z,95075.00
2023-02-16T03:58:42.151Z,95077.00
2023-02-16T04:01:09.154Z,95076.00
2023-02-16T04:03:36.049Z,95084.00
2023-02-16T04:06:07.706Z,95083.00
2023-02-16T04:08:34.866Z,95092.00
2023-02-16T04:11:21.843Z,95086.00
2023-02-16T04:13:53.649Z,95091.00
2023-02-16T04:16:22.655Z,95088.00
2023-02-16T04:18:49.622Z,95088.00
2023-02-16T04:21:16.561Z,95096.00
2023-02-16T04:23:46.188Z,95090.00
2023-02-16T04:26:13.196Z,95094.00
2023-02-16T04:28:42.634Z,95086.00
2023-02-16T04:31:09.577Z,95090.00
2023-02-16T04:33:36.506Z,95093.00
2023-02-16T04:36:05.665Z,95093.00
2023-02-16T04:38:34.619Z,95088.00
2023-02-16T04:41:01.701Z,95087.00
2023-02-16T04:43:35.681Z,95084.00
2023-02-16T04:46:02.728Z,95087.00
2023-02-16T04:48:29.603Z,95075.00
2023-02-16T04:50:58.994Z,95085.00
2023-02-16T04:53:28.996Z,95072.00
2023-02-16T04:55:58.391Z,95080.00
2023-02-16T04:58:25.342Z,95083.00
2023-02-16T05:00:56.876Z,95077.00
2023-02-16T05:03:23.720Z,95078.00
2023-02-16T05:05:50.685Z,95081.00
2023-02-16T05:08:20.544Z,95086.00
2023-02-16T05:11:07.739Z,95085.00
2023-02-16T05:13:54.061Z,95078.00
2023-02-16T05:16:23.221Z,95089.00
2023-02-16T05:18:50.703Z,95099.00
2023-02-16T05:21:32.572Z,95090.00
2023-02-16T05:24:19.996Z,95092.00
2023-02-16T05:26:46.868Z,95087.00
2023-02-16T05:29:16.319Z,95100.00
2023-02-16T05:31:46.366Z,95099.00
2023-02-16T05:34:15.555Z,95099.00
2023-02-16T05:36:47.160Z,95104.00
2023-02-16T05:39:14.001Z,95090.00
2023-02-16T05:41:40.954Z,95101.00
2023-02-16T05:44:09.050Z,95107.00
2023-02-16T05:46:40.948Z,95104.00
2023-02-16T05:49:08.895Z,95102.00
2023-02-16T05:51:36.899Z,95108.00
2023-02-16T05:54:06.915Z,95109.00
2023-02-16T05:56:33.994Z,95113.00
2023-02-16T05:59:00.867Z,95119.00
2023-02-16T06:01:32.197Z,95120.00
2023-02-16T06:03:59.123Z,95115.00
2023-02-16T06:06:26.061Z,95126.00
2023-02-16T06:08:53.062Z,95125.00
2023-02-16T06:11:38.235Z,95128.00
2023-02-16T06:14:14.074Z,95128.00
2023-02-16T06:16:44.481Z,95137.00
2023-02-16T06:19:18.032Z,95141.00
2023-02-16T06:21:45.882Z,95133.00
2023-02-16T06:24:16.588Z,95135.00
2023-02-16T06:26:43.552Z,95138.00
2023-02-16T06:29:10.850Z,95136.00
2023-02-16T06:31:37.988Z,95135.00
2023-02-16T06:34:05.656Z,95130.00
2023-02-16T06:36:34.234Z,95145.00
2023-02-16T06:39:03.781Z,95150.00
2023-02-16T06:41:40.439Z,95146.00
2023-02-16T06:44:13.424Z,95154.00
2023-02-16T06:46:46.057Z,95144.00
2023-02-16T06:49:17.985Z,95145.00
2023-02-16T06:51:48.166Z,95146.00
2023-02-16T06:54:18.184Z,95147.00
2023-02-16T06:56:48.124Z,95144.00
2023-02-16T06:59:17.589Z,95149.00
2023-02-16T07:01:46.726Z,95149.00
2023-02-16T07:04:15.719Z,95148.00
2023-02-16T07:06:44.676Z,95155.00
2023-02-16T07:09:12.820Z,95152.00
2023-02-16T07:11:42.427Z,95164.00
2023-02-16T07:14:09.650Z,95163.00
2023-02-16T07:16:39.140Z,95169.00
2023-02-16T07:19:06.917Z,95159.00
2023-02-16T07:21:37.096Z,95162.00
2023-02-16T07:24:04.205Z,95169.00
2023-02-16T07:26:33.599Z,95171.00
2023-02-16T07:29:02.984Z,95179.00
2023-02-16T07:31:30.093Z,95171.00
2023-02-16T07:33:57.164Z,95178.00
2023-02-16T07:36:28.516Z,95170.00
2023-02-16T07:38:55.514Z,95169.00
2023-02-16T07:41:27.037Z,95166.00
2023-02-16T07:43:56.263Z,95168.00
2023-02-16T07:46:25.518Z,95164.00
2023-02-16T07:48:54.644Z,95158.00
2023-02-16T07:51:27.394Z,95166.00
2023-02-16T07:53:55.112Z,95165.00
2023-02-16T07:56:25.391Z,95159.00
2023-02-16T07:58:57.432Z,95162.00
2023-02-16T08:01:27.942Z,95170.00
2023-02-16T08:03:54.750Z,95166.00
2023-02-16T08:06:27.940Z,95168.00
2023-02-16T08:08:59.364Z,95166.00
2023-02-16T08:11:28.716Z,95171.00
2023-02-16T08:13:55.608Z,95170.00
2023-02-16T08:16:28.004Z,95168.00
2023-02-16T08:19:00.154Z,95173.00
2023-02-16T08:21:37.065Z,95165.00
2023-02-16T08:24:14.670Z,95168.00
2023-02-16T08:26:45.065Z,95163.00
2023-02-16T08:29:14.897Z,95165.00
2023-02-16T08:31:42.308Z,95160.00
2023-02-16T08:34:10.368Z,95163.00
2023-02-16T08:36:40.067Z,95154.00
2023-02-16T08:39:17.694Z,95156.00
2023-02-16T08:41:46.947Z,95153.00
2023-02-16T08:44:18.937Z,95152.00
2023-02-16T08:46:50.496Z,95142.00
2023-02-16T08:49:25.050Z,95144.00
2023-02-16T08:51:56.685Z,95145.00
2023-02-16T08:54:33.421Z,95138.00
2023-02-16T08:57:02.858Z,95144.00
2023-02-16T08:59:30.436Z,95149.00
2023-02-16T09:01:59.222Z,95148.00
2023-02-16T09:04:29.033Z,95145.00
2023-02-16T09:06:59.400Z,95154.00
2023-02-16T09:09:27.277Z,95144.00
2023-02-16T09:11:57.746Z,95143.00
2023-02-16T09:14:24.875Z,95156.00
2023-02-16T09:16:54.539Z,95155.00
2023-02-16T09:19:22.006Z,95149.00
2023-02-16T09:21:56.370Z,95154.00
2023-02-16T09:24:23.366Z,95153.00
2023-02-16T09:26:50.225Z,95157.00
2023-02-16T09:29:18.162Z,95158.00
2023-02-16T09:31:45.451Z,95147.00
2023-02-16T09:34:23.542Z,95150.00
2023-02-16T09:36:51.314Z,95135.00
2023-02-16T09:39:21.646Z,95146.00
2023-02-16T09:42:30.529Z,95146.00
2023-02-16T09:45:16.321Z,95145.00
2023-02-16T09:47:49.136Z,95141.00
2023-02-16T09:50:38.254Z,95146.00
2023-02-16T09:53:22.573Z,95156.00
2023-02-16T09:56:04.692Z,95149.00
2023-02-16T09:58:48.949Z,95148.00
2023-02-16T10:01:19.258Z,95145.00
2023-02-16T10:04:00.937Z,95147.00
2023-02-16T10:06:34.205Z,95147.00
2023-02-16T10:09:16.429Z,95137.00
2023-02-16T10:12:03.078Z,95132.00
2023-02-16T10:14:58.720Z,95133.00
2023-02-16T10:17:39.949Z,95128.00
2023-02-16T10:20:13.073Z,95126.00
2023-02-16T10:23:06.890Z,95129.00
2023-02-16T10:26:00.253Z,95127.00
2023-02-16T10:28:46.428Z,95132.00
2023-02-16T10:31:53.132Z,95124.00
2023-02-16T10:34:50.844Z,95123.00
2023-02-16T10:37:37.034Z,95131.00
2023-02-16T10:40:23.109Z,95130.00
2023-02-16T10:43:18.202Z,95130.00
2023-02-16T10:46:01.119Z,95127.00
2023-02-16T10:48:31.631Z,95130.00
2023-02-16T10:51:12.708Z,95125.00
2023-02-16T10:53:46.670Z,95128.00
2023-02-16T10:56:33.161Z,95120.00
2023-02-16T10:59:08.246Z,95119.00
2023-02-16T11:01:39.667Z,95113.00
2023-02-16T11:04:10.200Z,95112.00
2023-02-16T11:06:39.710Z,95119.00
2023-02-16T11:09:07.651Z,95112.00
2023-02-16T11:11:41.082Z,95118.00
2023-02-16T11:14:30.543Z,95110.00
2023-02-16T11:17:13.586Z,95095.00
2023-02-16T11:19:50.892Z,95095.00
2023-02-16T11:22:31.264Z,95095.00
2023-02-16T11:25:24.736Z,95096.00
2023-02-16T11:28:02.434Z,95092.00
2023-02-16T11:30:38.951Z,95093.00
2023-02-16T11:33:24.355Z,95088.00
2023-02-16T11:35:54.166Z,95081.00
2023-02-16T11:38:32.250Z,95084.00
2023-02-16T11:41:03.816Z,95084.00
2023-02-16T11:43:39.196Z,95081.00
2023-02-16T11:46:19.421Z,95073.00
2023-02-16T11:48:51.634Z,95067.00
2023-02-16T11:51:36.479Z,95059.00
2023-02-16T11:54:07.719Z,95057.00
2023-02-16T11:56:39.360Z,95051.00
2023-02-16T11:59:34.263Z,95060.00
2023-02-16T12:02:29.059Z,95067.00
2023-02-16T12:05:22.481Z,95061.00
2023-02-16T12:08:22.700Z,95059.00
2023-02-16T12:11:25.504Z,95051.00
2023-02-16T12:14:13.135Z,95045.00
2023-02-16T12:16:58.608Z,95039.00
2023-02-16T12:19:36.683Z,95042.00
2023-02-16T12:22:32.644Z,95035.00
2023-02-16T12:25:23.738Z,95032.00
2023-02-16T12:28:45.239Z,95030.00
2023-02-16T12:31:54.051Z,95015.00
2023-02-16T12:34:58.370Z,95012.00
2023-02-16T12:37:52.351Z,95018.00
2023-02-16T12:40:39.412Z,95014.00
2023-02-16T12:43:34.369Z,95009.00
2023-02-16T12:46:37.569Z,95002.00
2023-02-16T12:49:49.108Z,94999.00
2023-02-16T12:52:32.622Z,95003.00
2023-02-16T12:55:41.083Z,95001.00
2023-02-16T12:58:07.951Z,94995.00
2023-02-16T13:00:53.449Z,95007.00
2023-02-16T13:04:14.365Z,94997.00
2023-02-16T13:06:55.808Z,94990.00
2023-02-16T13:09:58.310Z,94978.00
2023-02-16T13:12:39.907Z,94977.00
2023-02-16T13:15:28.082Z,94982.00
2023-02-16T13:18:06.513Z,94976.00
2023-02-16T13:20:36.202Z,94965.00
2023-02-16T13:23:23.544Z,94975.00
2023-02-16T13:26:30.260Z,94972.00
2023-02-16T13:29:38.309Z,94974.00
2023-02-16T13:33:02.363Z,94966.00
2023-02-16T13:36:19.609Z,94961.00
2023-02-16T13:39:40.564Z,94960.00
2023-02-16T13:42:39.447Z,94961.00
2023-02-16T13:45:21.123Z,94963.00
2023-02-16T13:47:48.192Z,94962.00
2023-02-16T13:50:23.973Z,94970.00
2023-02-16T13:52:53.468Z,94965.00
2023-02-16T13:55:39.144Z,94967.00
2023-02-16T13:58:14.887Z,94967.00
2023-02-16T14:00:47.665Z,94974.00
2023-02-16T14:03:20.110Z,94970.00
2023-02-16T14:05:53.342Z,94977.00
2023-02-16T14:08:30.781Z,94971.00
2023-02-16T14:11:01.701Z,94974.00
2023-02-16T14:13:36.928Z,94971.00
2023-02-16T14:16:11.573Z,94965.00
2023-02-16T14:19:05.965Z,94971.00
2023-02-16T14:21:37.006Z,94974.00
2023-02-16T14:24:08.704Z,94973.00
2023-02-16T14:26:54.987Z,94965.00
2023-02-16T14:29:53.084Z,94964.00
2023-02-16T14:32:38.438Z,94970.00
2023-02-16T14:35:13.389Z,94970.00
2023-02-16T14:37:57.037Z,94971.00
2023-02-16T14:40:40.498Z,94973.00
2023-02-16T14:43:25.926Z,94972.00
2023-02-16T14:46:02.083Z,94978.00
2023-02-16T14:48:43.849Z,94977.00
2023-02-16T14:51:42.896Z,94974.00
2023-02-16T14:55:03.081Z,94983.00
2023-02-16T14:58:06.255Z,94983.00
2023-02-16T15:01:01.367Z,94985.00
2023-02-16T15:03:46.226Z,94978.00
2023-02-16T15:06:27.671Z,94977.00
2023-02-16T15:09:13.427Z,94980.00
2023-02-16T15:12:13.056Z,94982.00
2023-02-16T15:14:49.185Z,94987.00
2023-02-16T15:17:44.873Z,94987.00
2023-02-16T15:20:24.754Z,94980.00
2023-02-16T15:22:58.409Z,94977.00
2023-02-16T15:25:39.006Z,94971.00
2023-02-16T15:28:23.552Z,94981.00
2023-02-16T15:30:56.108Z,94984.00
2023-02-16T15:33:25.636Z,94991.00
2023-02-16T15:35:59.769Z,94988.00
2023-02-16T15:38:32.832Z,94995.00
2023-02-16T15:41:15.285Z,94993.00
2023-02-16T15:43:48.766Z,94990.00
2023-02-16T15:46:34.899Z,94993.00
2023-02-16T15:49:27.858Z,94989.00
2023-02-16T15:51:56.967Z,94986.00
2023-02-16T15:54:31.952Z,94989.00
2023-02-16T15:57:06.945Z,94979.00
2023-02-16T15:59:51.518Z,94989.00
2023-02-16T16:02:33.596Z,94983.00
2023-02-16T16:05:04.441Z,94995.00
2023-02-16T16:07:41.150Z,94980.00
2023-02-16T16:10:26.168Z,94993.00
2023-02-16T16:12:59.127Z,94990.00
2023-02-16T16:15:32.662Z,94990.00
2023-02-16T16:18:02.732Z,94991.00
2023-02-16T16:20:36.646Z,94990.00
2023-02-16T16:23:15.752Z,94991.00
2023-02-16T16:25:48.536Z,94991.00
2023-02-16T16:28:27.997Z,94992.00
2023-02-16T16:31:11.655Z,94978.00
2023-02-16T16:34:09.585Z,94980.00
2023-02-16T16:36:56.329Z,94980.00
2023-02-16T16:39:35.035Z,94968.00
2023-02-16T16:42:19.842Z,94974.00
2023-02-16T16:44:56.339Z,94969.00
2023-02-16T16:47:36.309Z,94972.00
2023-02-16T16:50:34.962Z,94969.00
2023-02-16T16:53:07.388Z,94967.00
2023-02-16T16:55:39.458Z,94971.00
2023-02-16T16:58:10.485Z,94970.00
2023-02-16T17:00:39.769Z,94978.00
2023-02-16T17:03:08.734Z,94977.00
2023-02-16T17:05:38.292Z,94977.00
2023-02-16T17:08:12.504Z,94983.00
2023-02-16T17:10:42.703Z,94975.00
2023-02-16T17:13:16.552Z,94971.00
2023-02-16T17:15:51.481Z,94986.00
2023-02-16T17:18:20.961Z,94990.00
2023-02-16T17:20:55.295Z,94997.00
2023-02-16T17:23:23.304Z,94998.00
2023-02-16T17:25:53.194Z,94989.00
2023-02-16T17:28:20.936Z,94999.00
2023-02-16T17:30:47.935Z,95000.00
2023-02-16T17:33:15.220Z,94994.00
2023-02-16T17:35:43.415Z,94996.00
2023-02-16T17:38:19.993Z,95000.00
2023-02-16T17:40:56.581Z,95007.00
2023-02-16T17:43:27.418Z,95000.00
2023-02-16T17:46:01.199Z,94995.00
2023-02-16T17:48:30.434Z,95000.00
2023-02-16T17:50:58.492Z,95014.00
2023-02-16T17:53:27.242Z,95002.00
2023-02-16T17:55:57.116Z,95009.00
2023-02-16T17:58:28.644Z,95015.00
2023-02-16T18:00:55.515Z,94987.00
2023-02-16T18:03:23.047Z,95019.00
2023-02-16T18:05:50.131Z,95016.00
2023-02-16T18:08:17.178Z,95018.00
2023-02-16T18:10:48.244Z,95026.00
2023-02-16T18:13:18.998Z,95023.00
2023-02-16T18:15:50.856Z,95006.00
2023-02-16T18:18:18.681Z,95028.00
2023-02-16T18:20:48.236Z,95026.00
2023-02-16T18:23:17.719Z,95010.00
2023-02-16T18:25:44.745Z,95020.00
2023-02-16T18:28:18.680Z,95016.00
2023-02-16T18:30:50.613Z,95016.00
2023-02-16T18:33:21.128Z,95018.00
2023-02-16T18:35:54.088Z,95017.00
2023-02-16T18:38:22.253Z,95017.00
2023-02-16T18:40:54.085Z,95016.00
2023-02-16T18:43:23.930Z,95012.00
2023-02-16T18:45:50.892Z,95017.00
2023-02-16T18:48:17.938Z,95017.00
2023-02-16T18:50:47.423Z,95018.00
2023-02-16T18:53:14.327Z,95025.00
2023-02-16T18:55:41.203Z,95027.00
2023-02-16T18:58:08.706Z,95036.00
2023-02-16T19:00:36.836Z,95040.00
2023-02-16T19:03:04.496Z,95046.00
2023-02-16T19:05:34.545Z,95041.00
2023-02-16T19:08:04.460Z,95040.00
2023-02-16T19:10:31.530Z,95055.00
2023-02-16T19:12:59.760Z,95048.00
2023-02-16T19:15:28.075Z,95045.00
2023-02-16T19:17:57.176Z,95046.00
2023-02-16T19:20:24.246Z,95048.00
2023-02-16T19:22:53.931Z,95059.00
2023-02-16T19:25:21.317Z,95054.00
2023-02-16T19:27:48.511Z,95052.00
2023-02-16T19:30:15.741Z,95053.00
2023-02-16T19:32:44.835Z,95058.00
2023-02-16T19:35:14.411Z,95058.00
2023-02-16T19:37:46.192Z,95055.00
2023-02-16T19:40:16.548Z,95062.00
2023-02-16T19:42:45.767Z,95055.00
2023-02-16T19:45:12.635Z,95049.00
2023-02-16T19:47:39.590Z,95052.00
2023-02-16T19:50:09.231Z,95054.00
2023-02-16T19:52:36.207Z,95054.00
2023-02-16T19:55:03.538Z,95048.00
2023-02-16T19:57:30.472Z,95051.00
2023-02-16T19:59:59.587Z,95046.00
2023-02-16T20:02:26.540Z,95051.00
2023-02-16T20:04:54.424Z,95052.00
2023-02-16T20:07:21.357Z,95049.00
2023-02-16T20:09:48.291Z,95051.00
2023-02-16T20:12:15.514Z,95052.00
2023-02-16T20:14:42.488Z,95044.00
2023-02-16T20:17:09.315Z,95047.00
2023-02-16T20:19:36.230Z,95049.00
2023-02-16T20:22:03.219Z,95052.00
2023-02-16T20:24:34.880Z,95055.00
2023-02-16T20:27:04.327Z,95045.00
2023-02-16T20:29:34.317Z,95038.00
2023-02-16T20:32:01.458Z,95042.00
2023-02-16T20:34:31.115Z,95043.00
2023-02-16T20:36:58.497Z,95050.00
2023-02-16T20:39:28.152Z,95047.00
2023-02-16T20:41:55.124Z,95058.00
2023-02-16T20:44:24.524Z,95052.00
2023-02-16T20:46:53.811Z,95037.00
2023-02-16T20:49:23.834Z,95040.00
2023-02-16T20:51:52.048Z,95045.00
2023-02-16T20:54:19.002Z,95044.00
2023-02-16T20:56:45.943Z,95045.00
2023-02-16T20:59:15.620Z,95047.00
2023-02-16T21:01:52.740Z,95054.00
2023-02-16T21:04:20.311Z,95059.00
2023-02-16T21:06:47.565Z,95054.00
2023-02-16T21:09:15.697Z,95044.00
2023-02-16T21:11:43.297Z,95061.00
2023-02-16T21:14:12.320Z,95052.00
2023-02-16T21:16:40.988Z,95057.00
2023-02-16T21:19:20.981Z,95043.00
2023-02-16T21:21:52.130Z,95053.00
2023-02-16T21:24:21.779Z,95058.00
2023-02-16T21:26:51.234Z,95052.00
2023-02-16T21:29:20.380Z,95056.00
2023-02-16T21:31:47.459Z,95058.00
2023-02-16T21:34:14.508Z,95057.00
2023-02-16T21:36:41.439Z,95054.00
2023-02-16T21:39:08.381Z,95056.00
2023-02-16T21:41:35.618Z,95047.00
2023-02-16T21:44:09.877Z,95047.00
2023-02-16T21:46:46.623Z,95036.00
2023-02-16T21:49:19.573Z,95041.00
2023-02-16T21:51:48.413Z,95028.00
2023-02-16T21:54:18.557Z,95030.00
2023-02-16T21:56:52.844Z,95024.00
2023-02-16T21:59:22.615Z,95032.00
2023-02-16T22:01:55.995Z,95033.00
2023-02-16T22:04:23.311Z,95028.00
2023-02-16T22:06:54.684Z,95029.00
2023-02-16T22:09:23.577Z,95030.00
2023-02-16T22:11:51.438Z,95032.00
2023-02-16T22:14:18.832Z,95034.00
2023-02-16T22:16:47.638Z,95035.00
2023-02-16T22:19:18.297Z,95032.00
2023-02-16T22:21:51.276Z,95039.00
2023-02-16T22:24:22.054Z,95031.00
2023-02-16T22:26:50.239Z,95035.00
2023-02-16T22:29:19.888Z,95033.00
2023-02-16T22:31:49.209Z,95030.00
2023-02-16T22:34:22.558Z,95027.00
2023-02-16T22:36:49.879Z,95029.00
2023-02-16T22:39:18.545Z,95028.00
2023-02-16T22:41:48.112Z,95031.00
2023-02-16T22:44:15.726Z,95034.00
2023-02-16T22:46:43.301Z,95024.00
2023-02-16T22:49:12.756Z,95024.00
2023-02-16T22:51:42.679Z,95017.00
2023-02-16T22:54:10.963Z,95020.00
2023-02-16T22:56:37.829Z,95014.00
2023-02-16T22:59:04.681Z,95012.00
2023-02-16T23:01:34.044Z,95005.00
2023-02-16T23:04:06.348Z,95014.00
2023-02-16T23:06:36.447Z,95010.00
2023-02-16T23:09:17.068Z,95011.00
2023-02-16T23:11:44.544Z,95015.00
2023-02-16T23:14:20.758Z,95019.00
2023-02-16T23:16:57.171Z,95006.00
2023-02-16T23:19:27.148Z,95014.00
2023-02-16T23:21:55.009Z,95008.00
2023-02-16T23:24:23.485Z,95013.00
2023-02-16T23:26:56.388Z,95009.00
2023-02-16T23:29:25.858Z,95018.00
2023-02-16T23:31:53.487Z,95025.00
2023-02-16T23:34:21.045Z,95010.00
2023-02-16T23:36:47.966Z,95009.00
2023-02-16T23:39:17.913Z,95015.00
2023-02-16T23:41:45.672Z,95019.00
2023-02-16T23:44:14.285Z,95023.00
2023-02-16T23:46:41.504Z,95021.00
2023-02-16T23:49:10.961Z,95019.00
2023-02-16T23:51:40.294Z,95019.00
2023-02-16T23:54:09.634Z,95020.00
2023-02-16T23:56:39.737Z,95018.00
2023-02-16T23:59:08.697Z,95016.00
